Time;durP1;ratioP1;P1;durP2;ratioP2;P2;SDS_P1;SDS_P2;PMS_P1;PMS_P2;Temp;Humidity;BMP_temperature;BMP_pressure;BME280_temperature;BME280_humidity;BME280_pressure;Samples;Min_cycle;Max_cycle;Signal;HPM_P1;HPM_P2
2023/01/16 00:01:40;;;;;;;1.87;1.77;;;;;;;;;;5053608;28;20238;-77
2023/01/16 00:04:07;;;;;;;2.17;1.90;;;;;;;;;;5053700;28;20209;-77
2023/01/16 00:06:35;;;;;;;1.70;1.60;;;;;;;;;;5054894;28;20232;-77
2023/01/16 00:09:04;;;;;;;3.50;1.83;;;;;;;;;;5054110;28;20567;-77
2023/01/16 00:11:31;;;;;;;2.20;2.10;;;;;;;;;;5053666;28;20248;-77
2023/01/16 00:13:58;;;;;;;3.27;2.00;;;;;;;;;;5054059;28;20231;-77
2023/01/16 00:16:26;;;;;;;6.07;2.60;;;;;;;;;;5052897;28;20232;-77
2023/01/16 00:18:53;;;;;;;3.93;2.10;;;;;;;;;;5053561;28;20216;-77
2023/01/16 00:21:20;;;;;;;2.00;1.90;;;;;;;;;;5053156;28;20243;-77
2023/01/16 00:23:48;;;;;;;2.47;2.27;;;;;;;;;;5053721;28;20571;-77
2023/01/16 00:26:16;;;;;;;3.47;2.30;;;;;;;;;;5052867;28;20245;-77
2023/01/16 00:28:43;;;;;;;2.17;2.03;;;;;;;;;;5054021;28;20210;-77
2023/01/16 00:31:11;;;;;;;1.93;1.80;;;;;;;;;;5062866;28;20244;-76
2023/01/16 00:33:38;;;;;;;5.13;2.07;;;;;;;;;;5060604;28;20194;-77
2023/01/16 00:36:05;;;;;;;2.57;2.00;;;;;;;;;;5060617;28;20709;-77
2023/01/16 00:38:33;;;;;;;2.90;2.03;;;;;;;;;;5072859;28;20204;-77
2023/01/16 00:41:00;;;;;;;2.47;2.10;;;;;;;;;;5053098;28;20280;-77
2023/01/16 00:43:28;;;;;;;3.13;2.10;;;;;;;;;;5052966;28;20546;-77
2023/01/16 00:45:56;;;;;;;1.70;1.70;;;;;;;;;;5053251;28;20291;-77
2023/01/16 00:48:23;;;;;;;3.70;2.13;;;;;;;;;;5053204;28;20213;-77
2023/01/16 00:50:50;;;;;;;4.83;1.90;;;;;;;;;;5052848;28;20244;-77
2023/01/16 00:53:17;;;;;;;5.27;2.67;;;;;;;;;;5052773;28;20205;-77
2023/01/16 00:55:44;;;;;;;3.60;2.00;;;;;;;;;;5052641;28;20247;-77
2023/01/16 00:58:12;;;;;;;2.97;2.77;;;;;;;;;;5053008;28;20201;-77
2023/01/16 01:00:40;;;;;;;3.57;2.40;;;;;;;;;;5068044;28;20236;-77
2023/01/16 01:03:07;;;;;;;2.93;2.40;;;;;;;;;;5072359;28;20338;-77
2023/01/16 01:05:37;;;;;;;4.70;1.93;;;;;;;;;;5072251;28;20239;-77
2023/01/16 01:08:04;;;;;;;1.80;1.70;;;;;;;;;;5073047;28;20243;-77
2023/01/16 01:10:31;;;;;;;4.00;1.93;;;;;;;;;;5072279;28;20239;-77
2023/01/16 01:12:58;;;;;;;2.20;1.83;;;;;;;;;;5071281;28;20207;-77
2023/01/16 01:15:25;;;;;;;2.27;2.07;;;;;;;;;;5072118;28;20240;-77
2023/01/16 01:17:54;;;;;;;2.47;2.10;;;;;;;;;;5072809;28;20212;-77
2023/01/16 01:20:21;;;;;;;5.40;2.40;;;;;;;;;;5072000;28;20241;-76
2023/01/16 01:22:48;;;;;;;2.10;1.90;;;;;;;;;;5058420;28;20572;-76
2023/01/16 01:25:15;;;;;;;2.43;1.70;;;;;;;;;;5052040;28;20237;-76
2023/01/16 01:27:42;;;;;;;2.03;1.90;;;;;;;;;;5052841;28;20634;-76
2023/01/16 01:30:10;;;;;;;5.87;2.30;;;;;;;;;;5059158;28;20259;-76
2023/01/16 01:32:38;;;;;;;3.47;1.90;;;;;;;;;;5072182;28;20203;-77
2023/01/16 01:35:07;;;;;;;1.97;1.87;;;;;;;;;;5071040;28;20596;-76
2023/01/16 01:37:34;;;;;;;3.93;2.63;;;;;;;;;;5072180;28;20219;-76
2023/01/16 01:40:01;;;;;;;1.53;1.53;;;;;;;;;;5071939;28;20264;-76
2023/01/16 01:42:47;;;;;;;2.43;1.90;;;;;;;;;;5062629;28;20208;-77
2023/01/16 01:45:16;;;;;;;2.10;2.00;;;;;;;;;;5051550;28;20645;-77
2023/01/16 01:47:45;;;;;;;2.70;1.90;;;;;;;;;;5052146;28;20230;-77
2023/01/16 01:50:17;;;;;;;4.37;1.87;;;;;;;;;;5051661;28;20237;-77
2023/01/16 01:52:44;;;;;;;3.77;2.30;;;;;;;;;;5052002;28;20207;-77
2023/01/16 01:55:14;;;;;;;1.80;1.70;;;;;;;;;;5051612;28;20243;-77
2023/01/16 01:57:43;;;;;;;2.13;2.00;;;;;;;;;;5070935;28;20230;-77
2023/01/16 02:00:13;;;;;;;2.10;1.90;;;;;;;;;;5071630;28;20239;-78
2023/01/16 02:02:43;;;;;;;4.50;2.10;;;;;;;;;;5071566;28;20661;-78
2023/01/16 02:05:12;;;;;;;2.87;2.07;;;;;;;;;;5071484;28;20715;-77
2023/01/16 02:07:40;;;;;;;3.17;2.00;;;;;;;;;;5065658;28;20240;-77
2023/01/16 02:10:12;;;;;;;7.90;2.27;;;;;;;;;;5054038;28;20248;-77
2023/01/16 02:12:39;;;;;;;4.43;2.10;;;;;;;;;;5051394;28;20197;-78
2023/01/16 02:15:06;;;;;;;2.53;1.77;;;;;;;;;;5051522;28;20237;-77
2023/01/16 02:20:19;;;;;;;2.00;1.90;;;;;;;;;;5051101;28;20239;-78
2023/01/16 02:22:57;;;;;;;2.03;1.90;;;;;;;;;;5051578;28;20216;-77
2023/01/16 02:25:37;;;;;;;1.97;1.83;;;;;;;;;;5061507;28;20235;-77
2023/01/16 02:28:22;;;;;;;2.07;1.97;;;;;;;;;;5071793;28;20213;-78
2023/01/16 02:31:04;;;;;;;3.70;2.20;;;;;;;;;;5071396;28;20236;-77
2023/01/16 02:33:39;;;;;;;4.00;2.10;;;;;;;;;;5059224;28;20200;-78
2023/01/16 02:36:09;;;;;;;5.03;2.20;;;;;;;;;;5051095;28;20724;-77
2023/01/16 02:38:42;;;;;;;3.00;2.00;;;;;;;;;;5051667;28;20216;-77
2023/01/16 02:41:14;;;;;;;2.13;1.90;;;;;;;;;;5053618;28;20259;-77
2023/01/16 02:43:44;;;;;;;2.00;1.90;;;;;;;;;;5055808;28;20216;-78
2023/01/16 02:46:16;;;;;;;3.07;2.20;;;;;;;;;;5055184;28;20716;-77
2023/01/16 02:48:51;;;;;;;2.73;2.10;;;;;;;;;;5056751;28;20667;-77
2023/01/16 02:51:24;;;;;;;2.13;1.90;;;;;;;;;;5075041;28;20232;-77
2023/01/16 02:53:56;;;;;;;2.23;2.10;;;;;;;;;;5075318;28;20220;-77
2023/01/16 02:56:25;;;;;;;2.00;1.90;;;;;;;;;;5074908;28;20251;-77
2023/01/16 02:58:53;;;;;;;4.10;2.30;;;;;;;;;;5075616;28;20212;-78
2023/01/16 03:01:20;;;;;;;1.80;1.70;;;;;;;;;;5074808;28;20255;-77
2023/01/16 03:03:51;;;;;;;4.43;2.23;;;;;;;;;;5074704;28;20211;-78
2023/01/16 03:06:35;;;;;;;2.10;2.00;;;;;;;;;;5074705;28;20259;-77
2023/01/16 03:09:09;;;;;;;4.97;2.13;;;;;;;;;;5075352;28;20223;-78
2023/01/16 03:11:38;;;;;;;4.13;1.90;;;;;;;;;;5074561;28;20232;-77
2023/01/16 03:14:23;;;;;;;2.10;1.90;;;;;;;;;;5075130;28;20219;-77
2023/01/16 03:16:54;;;;;;;2.47;1.80;;;;;;;;;;5074418;28;20243;-77
2023/01/16 03:19:29;;;;;;;4.23;2.17;;;;;;;;;;5061866;28;20194;-77
2023/01/16 03:22:04;;;;;;;2.20;2.00;;;;;;;;;;5054701;28;20237;-77
2023/01/16 03:24:37;;;;;;;2.83;1.80;;;;;;;;;;5074839;28;20223;-77
2023/01/16 03:27:08;;;;;;;2.10;1.90;;;;;;;;;;5074183;28;20236;-77
2023/01/16 03:29:40;;;;;;;8.17;2.40;;;;;;;;;;5074319;28;20195;-79
2023/01/16 03:32:09;;;;;;;3.83;2.07;;;;;;;;;;5074172;28;20203;-78
2023/01/16 03:34:40;;;;;;;2.97;2.13;;;;;;;;;;5074101;28;20568;-78
2023/01/16 03:37:08;;;;;;;2.40;1.90;;;;;;;;;;5074871;28;20313;-77
2023/01/16 03:39:37;;;;;;;3.10;1.60;;;;;;;;;;5074172;28;20205;-78
2023/01/16 03:42:06;;;;;;;1.87;1.70;;;;;;;;;;5073965;28;20216;-77
2023/01/16 03:44:35;;;;;;;2.20;2.00;;;;;;;;;;5074292;28;20215;-77
2023/01/16 03:47:02;;;;;;;2.00;1.90;;;;;;;;;;5074022;28;20243;-77
2023/01/16 03:49:31;;;;;;;1.83;1.73;;;;;;;;;;5074408;28;20686;-77
2023/01/16 03:52:01;;;;;;;2.10;2.00;;;;;;;;;;5072908;28;20232;-77
2023/01/16 03:54:33;;;;;;;3.67;2.00;;;;;;;;;;5074173;28;20211;-77
2023/01/16 03:57:06;;;;;;;4.80;2.27;;;;;;;;;;5073317;28;20224;-77
2023/01/16 03:59:33;;;;;;;3.53;1.90;;;;;;;;;;5074537;28;20211;-77
2023/01/16 04:02:02;;;;;;;3.73;2.23;;;;;;;;;;5073246;28;20232;-78
2023/01/16 04:04:33;;;;;;;3.77;1.70;;;;;;;;;;5074069;28;20221;-77
2023/01/16 04:07:04;;;;;;;4.57;2.63;;;;;;;;;;5073687;28;20231;-77
2023/01/16 04:09:36;;;;;;;3.00;1.97;;;;;;;;;;5074647;28;20209;-77
2023/01/16 04:12:04;;;;;;;2.23;1.60;;;;;;;;;;5072468;28;20719;-77
2023/01/16 04:14:32;;;;;;;2.53;1.90;;;;;;;;;;5073847;28;20221;-77
2023/01/16 04:17:00;;;;;;;1.70;1.40;;;;;;;;;;5073618;28;20246;-77
2023/01/16 04:19:28;;;;;;;1.90;1.80;;;;;;;;;;5073751;28;20200;-78
2023/01/16 04:21:55;;;;;;;5.10;2.00;;;;;;;;;;5072844;28;20308;-77
2023/01/16 04:24:23;;;;;;;1.90;1.80;;;;;;;;;;5073472;28;20692;-77
2023/01/16 04:26:51;;;;;;;4.17;2.17;;;;;;;;;;5073106;28;20233;-78
2023/01/16 04:29:18;;;;;;;1.50;1.50;;;;;;;;;;5074037;28;20208;-78
2023/01/16 04:31:45;;;;;;;8.30;2.03;;;;;;;;;;5073093;28;20613;-77
2023/01/16 04:34:12;;;;;;;2.13;1.87;;;;;;;;;;5068556;28;20675;-78
2023/01/16 04:36:39;;;;;;;2.80;2.03;;;;;;;;;;5053187;28;20243;-77
2023/01/16 04:39:06;;;;;;;6.13;2.40;;;;;;;;;;5053533;28;20212;-78
2023/01/16 04:41:38;;;;;;;2.20;1.77;;;;;;;;;;5064642;28;20309;-77
2023/01/16 04:44:06;;;;;;;3.40;1.80;;;;;;;;;;5073436;28;20195;-78
2023/01/16 04:46:33;;;;;;;1.73;1.67;;;;;;;;;;5072724;28;20246;-77
2023/01/16 04:49:00;;;;;;;2.00;1.80;;;;;;;;;;5073308;28;20660;-77
2023/01/16 04:51:28;;;;;;;1.90;1.80;;;;;;;;;;5072983;28;20704;-77
2023/01/16 04:53:55;;;;;;;2.00;1.90;;;;;;;;;;5072968;28;20291;-76
2023/01/16 04:56:22;;;;;;;2.50;2.00;;;;;;;;;;5053461;28;20242;-76
2023/01/16 04:58:52;;;;;;;2.03;1.90;;;;;;;;;;5053060;28;20212;-76
2023/01/16 05:01:19;;;;;;;2.07;1.80;;;;;;;;;;5052747;28;20233;-76
2023/01/16 05:03:47;;;;;;;1.90;1.73;;;;;;;;;;5052665;28;20207;-77
2023/01/16 05:06:14;;;;;;;2.90;2.10;;;;;;;;;;5052546;28;20243;-77
2023/01/16 05:08:41;;;;;;;1.60;1.50;;;;;;;;;;5053195;28;20550;-77
2023/01/16 05:11:08;;;;;;;2.20;2.00;;;;;;;;;;5052439;28;20236;-76
2023/01/16 05:13:35;;;;;;;1.73;1.60;;;;;;;;;;5052715;28;20204;-76
2023/01/16 05:16:04;;;;;;;2.93;1.90;;;;;;;;;;5052250;28;20249;-76
2023/01/16 05:18:31;;;;;;;3.63;1.90;;;;;;;;;;5052836;28;20207;-76
2023/01/16 05:20:59;;;;;;;1.73;1.67;;;;;;;;;;5052179;28;20240;-76
2023/01/16 05:23:26;;;;;;;4.37;2.03;;;;;;;;;;5057356;28;20206;-76
2023/01/16 05:25:53;;;;;;;3.70;1.60;;;;;;;;;;5072076;28;20244;-76
2023/01/16 05:28:20;;;;;;;2.73;2.20;;;;;;;;;;5072741;28;20240;-76
2023/01/16 05:30:48;;;;;;;2.63;1.90;;;;;;;;;;5072066;28;20750;-76
2023/01/16 05:33:17;;;;;;;2.20;1.80;;;;;;;;;;5072019;28;20330;-77
2023/01/16 05:35:46;;;;;;;3.80;2.00;;;;;;;;;;5071877;28;20252;-76
2023/01/16 05:38:13;;;;;;;4.00;2.00;;;;;;;;;;5066280;28;20617;-76
2023/01/16 05:40:40;;;;;;;2.40;1.60;;;;;;;;;;5052086;28;20243;-76
2023/01/16 05:43:07;;;;;;;1.93;1.83;;;;;;;;;;5052140;28;20212;-76
2023/01/16 05:45:34;;;;;;;2.40;2.20;;;;;;;;;;5054903;28;20228;-76
2023/01/16 05:48:01;;;;;;;1.93;1.77;;;;;;;;;;5071779;28;20230;-76
2023/01/16 05:50:30;;;;;;;2.63;1.83;;;;;;;;;;5071301;28;20725;-76
2023/01/16 05:52:57;;;;;;;2.87;1.80;;;;;;;;;;5071827;28;20210;-76
2023/01/16 05:55:24;;;;;;;1.70;1.60;;;;;;;;;;5071365;28;20254;-77
2023/01/16 05:57:52;;;;;;;3.27;1.90;;;;;;;;;;5066946;28;20207;-76
2023/01/16 06:00:19;;;;;;;2.17;2.00;;;;;;;;;;5064000;28;20234;-76
2023/01/16 06:02:47;;;;;;;3.93;2.07;;;;;;;;;;5058083;28;20298;-76
2023/01/16 06:05:14;;;;;;;2.33;2.03;;;;;;;;;;5051635;28;20234;-76
2023/01/16 06:07:42;;;;;;;1.80;1.70;;;;;;;;;;5051633;28;20237;-76
2023/01/16 06:10:10;;;;;;;3.13;2.00;;;;;;;;;;5051449;28;20240;-76
2023/01/16 06:12:37;;;;;;;1.87;1.70;;;;;;;;;;5064073;28;20203;-76
2023/01/16 06:15:04;;;;;;;3.60;2.00;;;;;;;;;;5070192;28;20736;-76
2023/01/16 06:17:31;;;;;;;2.37;1.80;;;;;;;;;;5071614;28;20225;-75
2023/01/16 06:19:59;;;;;;;4.07;1.80;;;;;;;;;;5062915;28;20232;-76
2023/01/16 06:22:26;;;;;;;1.50;1.50;;;;;;;;;;5053336;28;20290;-78
2023/01/16 06:24:54;;;;;;;2.57;2.00;;;;;;;;;;5051208;28;20243;-76
2023/01/16 06:27:21;;;;;;;2.13;1.70;;;;;;;;;;5051359;28;20234;-76
2023/01/16 06:29:48;;;;;;;2.20;2.10;;;;;;;;;;5053050;28;20205;-76
2023/01/16 06:32:16;;;;;;;1.30;1.30;;;;;;;;;;5060002;28;20574;-77
2023/01/16 06:34:43;;;;;;;4.00;2.47;;;;;;;;;;5070315;28;20687;-77
2023/01/16 06:37:10;;;;;;;25.40;13.63;;;;;;;;;;5071139;28;20919;-76
2023/01/16 06:39:38;;;;;;;3.10;2.80;;;;;;;;;;5071112;28;20214;-76
2023/01/16 06:42:06;;;;;;;71.93;35.90;;;;;;;;;;5063363;28;20209;-75
2023/01/16 06:44:33;;;;;;;61.50;30.07;;;;;;;;;;5054138;28;20285;-76
2023/01/16 06:47:01;;;;;;;9.63;5.67;;;;;;;;;;5071447;28;20233;-76
2023/01/16 06:49:28;;;;;;;4.83;2.47;;;;;;;;;;5071272;28;20210;-77
2023/01/16 06:51:55;;;;;;;2.33;1.70;;;;;;;;;;5070787;28;20238;-76
2023/01/16 06:54:22;;;;;;;3.03;2.00;;;;;;;;;;5070938;28;20203;-75
2023/01/16 06:56:49;;;;;;;2.00;1.90;;;;;;;;;;5070726;28;20246;-75
2023/01/16 06:59:17;;;;;;;4.77;1.90;;;;;;;;;;5071152;28;20207;-75
2023/01/16 07:01:44;;;;;;;2.03;1.93;;;;;;;;;;5059999;28;20224;-75
2023/01/16 07:04:15;;;;;;;2.20;2.10;;;;;;;;;;5050828;28;20204;-76
2023/01/16 07:06:43;;;;;;;3.60;2.70;;;;;;;;;;5050490;28;20316;-77
2023/01/16 07:09:10;;;;;;;1.93;1.83;;;;;;;;;;5052007;28;20223;-75
2023/01/16 07:11:37;;;;;;;2.03;1.80;;;;;;;;;;5070619;28;20603;-75
2023/01/16 07:22:39;;;;;;;1.70;1.70;;;;;;;;;;5071037;28;20202;-80
2023/01/16 07:25:09;;;;;;;1.80;1.70;;;;;;;;;;5070552;28;20233;-76
2023/01/16 07:27:36;;;;;;;2.63;1.73;;;;;;;;;;5081145;22;20536;-76
2023/01/16 07:30:03;;;;;;;2.13;2.03;;;;;;;;;;5045789;28;20234;-76
2023/01/16 07:32:32;;;;;;;2.03;1.77;;;;;;;;;;5054372;28;20219;-76
2023/01/16 07:34:59;;;;;;;1.77;1.60;;;;;;;;;;5053932;28;20236;-76
2023/01/16 07:37:26;;;;;;;3.53;2.00;;;;;;;;;;5054295;28;20241;-76
2023/01/16 07:39:53;;;;;;;1.70;1.60;;;;;;;;;;5054127;28;20242;-76
2023/01/16 07:42:20;;;;;;;2.47;2.00;;;;;;;;;;5054005;28;20215;-76
2023/01/16 07:44:47;;;;;;;2.63;2.20;;;;;;;;;;5053873;28;20677;-76
2023/01/16 07:47:14;;;;;;;2.63;2.13;;;;;;;;;;5054050;28;20202;-76
2023/01/16 07:49:43;;;;;;;1.77;1.77;;;;;;;;;;5034515;28;20209;-76
2023/01/16 07:52:10;;;;;;;1.93;1.83;;;;;;;;;;5034104;28;20220;-76
2023/01/16 07:54:39;;;;;;;2.40;2.20;;;;;;;;;;5036282;28;20902;-78
2023/01/16 07:57:07;;;;;;;4.37;2.37;;;;;;;;;;5038026;28;20293;-77
2023/01/16 07:59:34;;;;;;;16.37;7.80;;;;;;;;;;5053561;28;20215;-78
2023/01/16 08:02:02;;;;;;;3.27;2.40;;;;;;;;;;5046635;28;20552;-77
2023/01/16 08:04:29;;;;;;;2.87;2.67;;;;;;;;;;5033697;28;20259;-77
2023/01/16 08:06:57;;;;;;;2.97;2.60;;;;;;;;;;5033620;28;20258;-77
2023/01/16 08:09:24;;;;;;;1.90;1.90;;;;;;;;;;5033606;28;20907;-77
2023/01/16 08:11:51;;;;;;;3.87;3.20;;;;;;;;;;5033524;28;20239;-78
2023/01/16 08:14:18;;;;;;;9.67;7.87;;;;;;;;;;5034125;28;20211;-76
2023/01/16 08:16:46;;;;;;;2.40;2.20;;;;;;;;;;5033509;28;20734;-77
2023/01/16 08:19:13;;;;;;;7.63;6.43;;;;;;;;;;5033529;28;20237;-77
2023/01/16 08:21:40;;;;;;;2.47;2.27;;;;;;;;;;5041603;28;20244;-76
2023/01/16 08:24:12;;;;;;;1.90;1.80;;;;;;;;;;5054816;28;20213;-76
2023/01/16 08:26:39;;;;;;;1.57;1.57;;;;;;;;;;5053834;28;20233;-76
2023/01/16 08:29:06;;;;;;;1.93;1.83;;;;;;;;;;5032522;28;20244;-77
2023/01/16 08:31:33;;;;;;;2.10;2.00;;;;;;;;;;5032856;28;20236;-77
2023/01/16 08:34:00;;;;;;;3.43;2.00;;;;;;;;;;5032507;28;20211;-77
2023/01/16 08:36:27;;;;;;;1.30;1.30;;;;;;;;;;5062157;28;20584;-76
2023/01/16 08:38:55;;;;;;;2.73;2.10;;;;;;;;;;5069175;28;20216;-77
2023/01/16 08:52:27;;;;;;;2.37;1.80;;;;;;;;;;5052246;28;20233;-76
2023/01/16 08:54:54;;;;;;;2.83;2.63;;;;;;;;;;5050592;28;20253;-76
2023/01/16 08:57:23;;;;;;;1.77;1.77;;;;;;;;;;5051760;28;20307;-76
2023/01/16 08:59:50;;;;;;;1.80;1.70;;;;;;;;;;5052427;28;20207;-76
2023/01/16 09:02:19;;;;;;;2.10;2.00;;;;;;;;;;5052743;28;20242;-75
2023/01/16 09:04:46;;;;;;;2.80;2.60;;;;;;;;;;5051952;28;20208;-76
2023/01/16 09:07:13;;;;;;;1.90;1.80;;;;;;;;;;5052363;28;20211;-76
2023/01/16 09:09:41;;;;;;;2.17;1.83;;;;;;;;;;5052186;28;20233;-77
2023/01/16 09:14:56;;;;;;;4.47;3.93;;;;;;;;;;5052230;28;20236;-77
2023/01/16 09:17:23;;;;;;;4.83;2.10;;;;;;;;;;5032027;28;20214;-77
2023/01/16 09:19:50;;;;;;;2.17;2.07;;;;;;;;;;5032080;28;20211;-76
2023/01/16 09:22:18;;;;;;;2.20;2.10;;;;;;;;;;5031769;28;20212;-76
2023/01/16 09:24:45;;;;;;;2.60;1.90;;;;;;;;;;5031881;28;20215;-77
2023/01/16 09:27:13;;;;;;;2.07;1.90;;;;;;;;;;5032379;28;20209;-76
2023/01/16 09:29:41;;;;;;;2.20;2.00;;;;;;;;;;5031391;28;20285;-76
2023/01/16 09:32:09;;;;;;;1.47;1.47;;;;;;;;;;5031850;28;20209;-76
2023/01/16 09:34:37;;;;;;;1.63;1.57;;;;;;;;;;5031463;28;20216;-76
2023/01/16 09:37:04;;;;;;;2.27;2.07;;;;;;;;;;5032057;28;20217;-76
2023/01/16 09:39:31;;;;;;;1.67;1.63;;;;;;;;;;5031928;28;20205;-76
2023/01/16 09:44:53;;;;;;;3.20;2.00;;;;;;;;;;5031396;28;20704;-77
2023/01/16 09:47:24;;;;;;;2.40;2.20;;;;;;;;;;5031375;28;20578;-76
2023/01/16 09:49:53;;;;;;;2.97;2.47;;;;;;;;;;5059173;28;20237;-77
2023/01/16 10:00:42;;;;;;;2.20;2.10;;;;;;;;;;5071440;28;20260;-76
2023/01/16 10:03:10;;;;;;;2.97;2.70;;;;;;;;;;5054213;28;20201;-76
2023/01/16 10:05:42;;;;;;;28.00;13.23;;;;;;;;;;5051108;28;20244;-76
2023/01/16 10:08:17;;;;;;;3.27;2.50;;;;;;;;;;5051152;28;20240;-76
2023/01/16 10:10:45;;;;;;;8.50;5.37;;;;;;;;;;5051006;28;20760;-78
2023/01/16 10:13:21;;;;;;;4.27;3.43;;;;;;;;;;5051310;28;20208;-78
2023/01/16 10:15:52;;;;;;;43.33;15.10;;;;;;;;;;5050793;28;20244;-76
2023/01/16 10:18:26;;;;;;;3.00;2.30;;;;;;;;;;5051022;28;20225;-79
2023/01/16 10:20:57;;;;;;;3.20;3.00;;;;;;;;;;5050819;28;20274;-77
2023/01/16 10:23:31;;;;;;;4.43;4.03;;;;;;;;;;5050868;28;20297;-77
2023/01/16 10:26:02;;;;;;;5.30;3.67;;;;;;;;;;5050616;28;20242;-76
2023/01/16 10:28:32;;;;;;;5.43;3.90;;;;;;;;;;5050636;28;20578;-78
2023/01/16 10:31:03;;;;;;;4.73;3.17;;;;;;;;;;5050819;28;20236;-78
2023/01/16 10:33:34;;;;;;;3.53;3.23;;;;;;;;;;5050618;28;20220;-77
2023/01/16 10:36:01;;;;;;;4.33;3.93;;;;;;;;;;5050415;28;20232;-77
2023/01/16 10:38:39;;;;;;;2.40;2.20;;;;;;;;;;5050737;28;20230;-77
2023/01/16 10:49:25;;;;;;;3.30;3.07;;;;;;;;;;5050727;28;20278;-77
2023/01/16 10:49:28;;;;;;;3.13;2.83;;;;;;;;;;5050582;28;20288;-77
2023/01/16 10:51:56;;;;;;;10.83;2.70;;;;;;;;;;5050355;28;20232;-77
2023/01/16 10:54:23;;;;;;;2.53;2.33;;;;;;;;;;5050481;28;20694;-78
2023/01/16 10:56:50;;;;;;;3.00;2.80;;;;;;;;;;5050197;28;20235;-77
2023/01/16 10:59:18;;;;;;;4.07;3.67;;;;;;;;;;5054294;28;20231;-76
2023/01/16 11:01:45;;;;;;;1.90;1.80;;;;;;;;;;5057988;28;20232;-76
2023/01/16 11:04:13;;;;;;;4.23;3.33;;;;;;;;;;5054396;28;20207;-76
2023/01/16 11:06:43;;;;;;;5.50;5.10;;;;;;;;;;5054143;28;20240;-76
2023/01/16 11:09:17;;;;;;;2.70;2.53;;;;;;;;;;5054066;28;20325;-76
2023/01/16 11:20:13;;;;;;;2.10;2.00;;;;;;;;;;5033767;28;20289;-77
2023/01/16 11:22:42;;;;;;;2.00;1.90;;;;;;;;;;5034363;28;20218;-76
2023/01/16 11:25:17;;;;;;;1.90;1.90;;;;;;;;;;5033755;28;20236;-77
2023/01/16 11:27:44;;;;;;;2.23;2.07;;;;;;;;;;5034241;28;20248;-77
2023/01/16 11:30:16;;;;;;;1.60;1.60;;;;;;;;;;5033610;28;20241;-77
2023/01/16 11:32:48;;;;;;;2.77;1.97;;;;;;;;;;5033948;28;20682;-77
2023/01/16 11:35:15;;;;;;;1.90;1.80;;;;;;;;;;5033809;28;20248;-77
2023/01/16 11:37:45;;;;;;;2.20;2.10;;;;;;;;;;5040817;28;20247;-77
2023/01/16 11:40:16;;;;;;;1.80;1.80;;;;;;;;;;5065190;28;20240;-77
2023/01/16 11:48:26;;;;;;;2.33;2.13;;;;;;;;;;5054388;28;20243;-77
2023/01/16 11:50:53;;;;;;;2.13;2.00;;;;;;;;;;5065015;28;20236;-77
2023/01/16 11:53:22;;;;;;;2.40;2.20;;;;;;;;;;5073479;28;20219;-77
2023/01/16 11:56:10;;;;;;;2.67;2.23;;;;;;;;;;5073401;28;20235;-76
2023/01/16 11:58:40;;;;;;;2.77;2.17;;;;;;;;;;5073782;28;20239;-76
2023/01/16 12:01:11;;;;;;;2.00;1.90;;;;;;;;;;5062936;28;20228;-77
2023/01/16 12:03:50;;;;;;;2.27;2.07;;;;;;;;;;5033485;28;20652;-76
2023/01/16 12:06:22;;;;;;;2.03;1.93;;;;;;;;;;5056559;28;20231;-76
2023/01/16 12:09:11;;;;;;;1.97;1.87;;;;;;;;;;5071108;28;20233;-77
2023/01/16 12:11:46;;;;;;;2.17;2.00;;;;;;;;;;5068354;28;20233;-76
2023/01/16 12:14:18;;;;;;;2.37;1.73;;;;;;;;;;5068166;28;20213;-76
2023/01/16 12:16:50;;;;;;;2.00;1.90;;;;;;;;;;5061677;28;20700;-75
2023/01/16 12:19:30;;;;;;;1.90;1.73;;;;;;;;;;5072776;28;20229;-77
2023/01/16 12:22:01;;;;;;;1.80;1.70;;;;;;;;;;5063189;28;20251;-77
2023/01/16 12:24:35;;;;;;;1.90;1.80;;;;;;;;;;5053012;28;20219;-77
2023/01/16 12:27:09;;;;;;;3.27;2.23;;;;;;;;;;5055068;28;20236;-77
2023/01/16 12:29:44;;;;;;;1.83;1.73;;;;;;;;;;5063797;28;20221;-78
2023/01/16 12:32:23;;;;;;;1.60;1.60;;;;;;;;;;5065966;28;20270;-78
2023/01/16 12:35:00;;;;;;;2.50;2.27;;;;;;;;;;5054139;28;20205;-78
2023/01/16 12:37:33;;;;;;;2.77;2.00;;;;;;;;;;5057953;28;20232;-77
2023/01/16 12:40:07;;;;;;;1.50;1.50;;;;;;;;;;5059827;28;20244;-77
2023/01/16 12:45:29;;;;;;;2.80;1.80;;;;;;;;;;5051046;28;20372;-77
2023/01/16 12:48:07;;;;;;;1.67;1.57;;;;;;;;;;5062936;28;20225;-77
2023/01/16 12:50:42;;;;;;;1.90;1.80;;;;;;;;;;5072346;28;20237;-77
2023/01/16 12:53:19;;;;;;;2.50;2.40;;;;;;;;;;5072436;28;20212;-77
2023/01/16 12:55:49;;;;;;;1.90;1.80;;;;;;;;;;5072265;28;20236;-77
2023/01/16 12:58:18;;;;;;;2.00;1.93;;;;;;;;;;5072328;28;20226;-77
2023/01/16 13:00:48;;;;;;;1.90;1.80;;;;;;;;;;5071922;28;20716;-77
2023/01/16 13:03:23;;;;;;;1.60;1.50;;;;;;;;;;5054370;28;20209;-77
2023/01/16 13:05:51;;;;;;;1.70;1.60;;;;;;;;;;5052267;28;20269;-78
2023/01/16 13:08:23;;;;;;;1.50;1.50;;;;;;;;;;5052285;28;20244;-77
2023/01/16 13:13:41;;;;;;;1.67;1.67;;;;;;;;;;5052253;28;20690;-77
2023/01/16 13:16:12;;;;;;;1.53;1.53;;;;;;;;;;5052028;28;20237;-77
2023/01/16 13:18:41;;;;;;;1.90;1.80;;;;;;;;;;5051852;28;20705;-77
2023/01/16 13:21:10;;;;;;;1.83;1.70;;;;;;;;;;5052053;28;20245;-77
2023/01/16 13:23:40;;;;;;;1.73;1.70;;;;;;;;;;5051920;28;20215;-77
2023/01/16 13:26:09;;;;;;;1.40;1.40;;;;;;;;;;5051602;28;20249;-77
2023/01/16 13:28:44;;;;;;;2.50;1.70;;;;;;;;;;5072520;23;20229;-80
2023/01/16 13:31:15;;;;;;;1.80;1.70;;;;;;;;;;5051902;28;20236;-80
2023/01/16 13:33:44;;;;;;;1.40;1.40;;;;;;;;;;5052413;28;20677;-81
2023/01/16 13:36:18;;;;;;;1.30;1.30;;;;;;;;;;5051887;28;20238;-82
2023/01/16 13:38:55;;;;;;;1.40;1.40;;;;;;;;;;5052535;28;20236;-82
2023/01/16 13:41:22;;;;;;;1.50;1.50;;;;;;;;;;5051615;28;20288;-82
2023/01/16 13:46:41;;;;;;;1.40;1.40;;;;;;;;;;5051734;28;20348;-82
2023/01/16 13:49:09;;;;;;;1.80;1.63;;;;;;;;;;5051825;28;20242;-82
2023/01/16 13:51:42;;;;;;;1.77;1.67;;;;;;;;;;5051951;28;20230;-83
2023/01/16 13:54:14;;;;;;;1.47;1.47;;;;;;;;;;5037150;28;20206;-82
2023/01/16 13:56:41;;;;;;;1.53;1.47;;;;;;;;;;5031889;28;20227;-82
2023/01/16 13:59:17;;;;;;;1.33;1.33;;;;;;;;;;5032218;28;20230;-82
2023/01/16 14:01:56;;;;;;;2.50;1.50;;;;;;;;;;5036718;28;20233;-82
2023/01/16 14:04:29;;;;;;;1.30;1.30;;;;;;;;;;5051867;28;20217;-82
2023/01/16 14:09:53;;;;;;;1.80;1.70;;;;;;;;;;5066725;28;20704;-82
2023/01/16 14:12:21;;;;;;;2.83;1.67;;;;;;;;;;5071725;28;20621;-82
2023/01/16 14:18:03;;;;;;;1.50;1.50;;;;;;;;;;5008909;28;20215;-83
2023/01/16 14:20:37;;;;;;;1.30;1.30;;;;;;;;;;5043247;28;20233;-83
2023/01/16 14:25:52;;;;;;;1.50;1.50;;;;;;;;;;5051393;28;20237;-83
2023/01/16 14:28:19;;;;;;;1.70;1.60;;;;;;;;;;5051514;28;20260;-83
2023/01/16 14:30:47;;;;;;;1.13;1.13;;;;;;;;;;5051150;28;20701;-83
2023/01/16 14:33:17;;;;;;;1.30;1.30;;;;;;;;;;5051689;28;20213;-82
2023/01/16 14:35:46;;;;;;;1.40;1.40;;;;;;;;;;5052162;28;20256;-82
2023/01/16 14:38:16;;;;;;;1.20;1.20;;;;;;;;;;5058330;28;20232;-82
2023/01/16 14:55:22;;;;;;;1.40;1.40;;;;;;;;;;5058857;28;20298;-83
2023/01/16 14:57:51;;;;;;;2.03;1.40;;;;;;;;;;5057870;28;20210;-81
2023/01/16 15:00:19;;;;;;;1.87;1.40;;;;;;;;;;5058059;28;20229;-81
2023/01/16 15:02:52;;;;;;;3.70;1.50;;;;;;;;;;5058409;28;20201;-83
2023/01/16 15:05:25;;;;;;;1.57;1.47;;;;;;;;;;5057725;28;20772;-82
2023/01/16 15:07:53;;;;;;;1.37;1.37;;;;;;;;;;5057912;28;20269;-82
2023/01/16 15:10:21;;;;;;;3.27;2.97;;;;;;;;;;5057853;28;20237;-82
2023/01/16 15:12:49;;;;;;;34.63;19.17;;;;;;;;;;5058629;28;20206;-83
2023/01/16 15:15:26;;;;;;;2.63;2.43;;;;;;;;;;5058933;28;20230;-82
2023/01/16 15:23:27;;;;;;;1.60;1.60;;;;;;;;;;5059436;28;20186;-83
2023/01/16 15:26:17;;;;;;;1.43;1.43;;;;;;;;;;5059514;28;20237;-83
2023/01/16 15:28:51;;;;;;;1.90;1.80;;;;;;;;;;5059975;28;20245;-83
2023/01/16 15:31:19;;;;;;;2.23;2.13;;;;;;;;;;5058589;28;20218;-83
2023/01/16 15:33:48;;;;;;;4.27;2.77;;;;;;;;;;5059379;28;20210;-83
2023/01/16 15:36:24;;;;;;;3.00;2.70;;;;;;;;;;5058476;28;20689;-83
2023/01/16 15:38:53;;;;;;;2.60;2.40;;;;;;;;;;5063367;28;20229;-82
2023/01/16 15:46:32;;;;;;;4.95;3.55;;;;;;;;;;5069649;28;20447;-84
2023/01/16 15:47:03;;;;;;;1.77;1.67;;;;;;;;;;5079662;28;20236;-83
2023/01/16 15:49:34;;;;;;;2.00;1.90;;;;;;;;;;5068798;28;20234;-84
2023/01/16 15:52:02;;;;;;;1.40;1.40;;;;;;;;;;5062606;28;20686;-85
2023/01/16 15:54:29;;;;;;;1.60;1.60;;;;;;;;;;5072289;28;20197;-84
2023/01/16 15:56:56;;;;;;;1.70;1.60;;;;;;;;;;5078700;28;20224;-83
2023/01/16 15:59:25;;;;;;;2.30;2.20;;;;;;;;;;5078117;28;20386;-83
2023/01/16 16:01:52;;;;;;;2.53;2.33;;;;;;;;;;5071320;28;20223;-83
2023/01/16 16:04:20;;;;;;;2.63;2.10;;;;;;;;;;5035969;28;20237;-84
2023/01/16 16:06:49;;;;;;;2.63;2.43;;;;;;;;;;5035599;28;20609;-84
2023/01/16 16:09:19;;;;;;;2.07;1.97;;;;;;;;;;5035470;28;20234;-85
2023/01/16 16:11:51;;;;;;;1.97;1.83;;;;;;;;;;5034807;28;20308;-83
2023/01/16 16:19:52;;;;;;;2.77;2.43;;;;;;;;;;5053292;28;20225;-83
2023/01/16 16:25:09;;;;;;;2.10;1.90;;;;;;;;;;5053075;28;20283;-84
2023/01/16 16:27:36;;;;;;;2.17;2.07;;;;;;;;;;5053825;28;20213;-85
2023/01/16 16:30:04;;;;;;;2.10;2.00;;;;;;;;;;5052570;28;20238;-85
2023/01/16 16:32:31;;;;;;;2.60;2.00;;;;;;;;;;5068852;28;20204;-85
2023/01/16 16:34:58;;;;;;;2.10;1.70;;;;;;;;;;5073587;28;20240;-85
2023/01/16 16:37:27;;;;;;;2.10;2.00;;;;;;;;;;5075456;28;20206;-85
2023/01/16 16:39:55;;;;;;;2.10;2.00;;;;;;;;;;5072518;28;20245;-84
2023/01/16 16:42:47;;;;;;;2.20;2.10;;;;;;;;;;5054197;28;20202;-83